Time;durP1;ratioP1;P1;durP2;ratioP2;P2;SDS_P1;SDS_P2;PMS_P1;PMS_P2;Temp;Humidity;BMP_temperature;BMP_pressure;BME280_temperature;BME280_humidity;BME280_pressure;Samples;Min_cycle;Max_cycle;Signal;HPM_P1;HPM_P2
2022/10/21 00:07:28;;;;;;;18.77;7.13;;;16.00;99.90;;;;;;7843609;74;26666;-58
2022/10/21 00:17:30;;;;;;;10.17;5.80;;;16.00;99.90;;;;;;7875434;74;26638;-60
2022/10/21 00:27:33;;;;;;;9.07;6.07;;;15.90;99.90;;;;;;7870570;74;26326;-56
2022/10/21 00:37:35;;;;;;;13.17;6.10;;;16.00;99.90;;;;;;7812444;74;26267;-54
2022/10/21 00:47:43;;;;;;;9.93;5.73;;;16.10;99.90;;;;;;7853568;74;26256;-55
2022/10/21 00:57:46;;;;;;;13.10;5.83;;;16.10;99.90;;;;;;7828140;73;26414;-56
2022/10/21 01:07:50;;;;;;;10.33;5.87;;;16.10;99.90;;;;;;7837023;73;26267;-57
2022/10/21 01:18:14;;;;;;;10.60;5.80;;;16.10;99.90;;;;;;7892470;73;26584;-55
2022/10/21 01:28:28;;;;;;;9.67;5.27;;;16.10;99.90;;;;;;7854488;74;26233;-57
2022/10/21 01:38:45;;;;;;;7.10;4.67;;;16.00;99.90;;;;;;7873828;74;26225;-54
2022/10/21 01:48:51;;;;;;;8.30;4.83;;;16.00;99.90;;;;;;7778939;74;26378;-54
2022/10/21 01:58:54;;;;;;;8.93;5.10;;;16.10;99.90;;;;;;7917684;74;26240;-55
2022/10/21 02:08:57;;;;;;;9.97;5.10;;;16.10;99.90;;;;;;7856718;73;26803;-57
2022/10/21 02:19:00;;;;;;;10.80;4.70;;;16.10;99.90;;;;;;7913367;73;26828;-57
2022/10/21 02:29:03;;;;;;;9.63;5.73;;;16.10;99.90;;;;;;7896726;74;26357;-57
2022/10/21 02:39:09;;;;;;;11.53;5.57;;;16.00;99.90;;;;;;7888645;74;26300;-58
2022/10/21 02:49:11;;;;;;;13.40;4.63;;;15.90;99.90;;;;;;7869892;74;26270;-56
2022/10/21 02:59:14;;;;;;;6.60;4.10;;;16.00;99.90;;;;;;7873041;74;26306;-56
2022/10/21 03:09:16;;;;;;;8.57;4.80;;;16.10;99.90;;;;;;7893756;74;26751;-56
2022/10/21 03:19:19;;;;;;;18.33;5.43;;;16.00;99.90;;;;;;7901978;74;26377;-58
2022/10/21 03:29:21;;;;;;;10.37;3.87;;;16.00;99.90;;;;;;7897313;74;26280;-57
2022/10/21 03:39:24;;;;;;;9.07;3.50;;;15.90;99.90;;;;;;7887292;74;27513;-56
2022/10/21 03:49:26;;;;;;;6.53;3.77;;;16.10;99.90;;;;;;7879651;74;26283;-54
2022/10/21 03:59:29;;;;;;;17.63;4.33;;;16.00;99.90;;;;;;7881380;74;26350;-55
2022/10/21 04:09:31;;;;;;;8.53;3.50;;;15.90;99.90;;;;;;7887266;74;26280;-55
2022/10/21 04:19:34;;;;;;;9.20;3.40;;;16.00;99.90;;;;;;7884157;73;26640;-56
2022/10/21 04:29:36;;;;;;;11.23;3.60;;;16.00;99.90;;;;;;7867580;74;26565;-56
2022/10/21 04:39:39;;;;;;;10.00;3.57;;;16.00;99.90;;;;;;7890015;74;26286;-58
2022/10/21 04:49:41;;;;;;;6.27;3.47;;;16.00;99.90;;;;;;7892041;73;26708;-57
2022/10/21 04:59:44;;;;;;;5.80;3.40;;;16.00;99.90;;;;;;7873193;74;26840;-57
2022/10/21 05:09:46;;;;;;;7.67;3.83;;;16.00;99.90;;;;;;7915176;73;26264;-56
2022/10/21 05:19:49;;;;;;;4.07;3.17;;;15.90;99.90;;;;;;7908984;73;26245;-57
2022/10/21 05:29:51;;;;;;;6.53;3.50;;;15.80;99.90;;;;;;7919729;74;26798;-57
2022/10/21 05:39:54;;;;;;;4.03;2.90;;;15.90;99.90;;;;;;7904742;74;26253;-56
2022/10/21 05:49:56;;;;;;;7.07;3.70;;;15.90;99.90;;;;;;7907534;74;26229;-56
2022/10/21 05:59:59;;;;;;;10.00;3.27;;;15.90;99.90;;;;;;7910812;74;26739;-56
2022/10/21 06:10:02;;;;;;;4.83;3.13;;;15.90;99.90;;;;;;7914720;74;26260;-56
2022/10/21 06:20:05;;;;;;;10.73;3.90;;;15.90;99.90;;;;;;7900166;74;26322;-58
2022/10/21 06:30:08;;;;;;;8.13;3.03;;;15.90;99.90;;;;;;7901425;74;26877;-56
2022/10/21 06:40:11;;;;;;;8.60;2.93;;;16.00;99.90;;;;;;7887460;74;26290;-56
2022/10/21 06:50:14;;;;;;;12.63;2.97;;;16.00;99.90;;;;;;7883008;74;26232;-55
2022/10/21 07:00:17;;;;;;;6.20;2.70;;;16.00;99.90;;;;;;7880812;74;26265;-56
2022/10/21 07:10:19;;;;;;;5.83;2.63;;;16.10;99.90;;;;;;7873620;74;26693;-58
2022/10/21 07:20:22;;;;;;;10.00;3.17;;;16.10;99.90;;;;;;7886243;74;26389;-55
2022/10/21 07:30:24;;;;;;;12.20;3.87;;;16.10;99.90;;;;;;7938294;73;26318;-57
2022/10/21 07:40:30;;;;;;;11.30;4.60;;;16.10;99.90;;;;;;7932106;74;26275;-55
2022/10/21 07:50:33;;;;;;;14.90;4.00;;;16.10;99.90;;;;;;7898543;74;26872;-56
2022/10/21 08:00:35;;;;;;;11.33;3.17;;;16.20;99.90;;;;;;7914746;74;26225;-57
2022/10/21 08:10:41;;;;;;;8.20;3.23;;;16.20;99.90;;;;;;7886215;74;26254;-57
2022/10/21 08:20:45;;;;;;;11.63;3.60;;;16.30;99.90;;;;;;7909848;73;26288;-54
2022/10/21 08:30:48;;;;;;;14.90;2.93;;;16.30;99.90;;;;;;7878292;74;26409;-55
2022/10/21 08:40:51;;;;;;;8.70;2.90;;;16.30;99.90;;;;;;7923643;73;27113;-58
2022/10/21 08:50:55;;;;;;;25.00;4.60;;;16.40;99.90;;;;;;7844071;73;26225;-59
2022/10/21 09:01:03;;;;;;;25.57;5.20;;;16.50;99.90;;;;;;7859550;73;26316;-54
2022/10/21 09:11:19;;;;;;;17.63;3.20;;;16.50;99.90;;;;;;7906156;73;26736;-56
2022/10/21 09:21:39;;;;;;;14.53;2.83;;;16.50;99.90;;;;;;7932584;73;26246;-57
2022/10/21 09:31:43;;;;;;;7.20;2.47;;;16.50;99.90;;;;;;7890493;73;26299;-59
2022/10/21 09:41:52;;;;;;;9.60;3.27;;;16.60;99.90;;;;;;7964343;73;26236;-56
2022/10/21 09:51:57;;;;;;;7.03;1.97;;;16.60;99.90;;;;;;7808043;74;27080;-57
2022/10/21 10:02:07;;;;;;;8.03;2.53;;;16.60;99.90;;;;;;7929123;73;26240;-58
2022/10/21 10:12:15;;;;;;;8.10;2.57;;;16.60;99.90;;;;;;7941567;73;26741;-56
2022/10/21 10:22:17;;;;;;;15.80;3.20;;;16.70;99.90;;;;;;7830831;73;26257;-57
2022/10/21 10:32:23;;;;;;;5.40;2.27;;;16.70;99.90;;;;;;7942579;73;26722;-57
2022/10/21 10:42:36;;;;;;;5.83;2.33;;;16.80;99.90;;;;;;7806863;75;27141;-56
2022/10/21 10:52:38;;;;;;;9.77;2.13;;;16.80;99.90;;;;;;7815929;73;26244;-58
2022/10/21 11:02:49;;;;;;;15.70;2.60;;;16.90;99.90;;;;;;7929770;73;26872;-58
2022/10/21 11:12:53;;;;;;;8.63;2.33;;;16.90;99.90;;;;;;7932883;73;26281;-59
2022/10/21 11:23:04;;;;;;;9.27;1.60;;;16.90;99.90;;;;;;7929596;73;26302;-58
2022/10/21 11:33:18;;;;;;;4.77;1.90;;;17.00;99.90;;;;;;7937593;73;26738;-60
2022/10/21 11:43:42;;;;;;;12.70;2.13;;;17.00;99.90;;;;;;7934044;73;26254;-57
2022/10/21 11:54:11;;;;;;;5.23;1.60;;;17.10;99.90;;;;;;7930947;73;26354;-59
2022/10/21 12:04:19;;;;;;;10.03;1.73;;;17.20;99.90;;;;;;7936996;73;26664;-58
2022/10/21 12:14:39;;;;;;;10.57;1.47;;;17.10;99.90;;;;;;8047120;72;26277;-56
2022/10/21 12:24:47;;;;;;;15.47;1.60;;;17.20;99.90;;;;;;8015552;72;26238;-58
2022/10/21 12:34:50;;;;;;;15.93;1.90;;;17.20;99.90;;;;;;7857645;74;27110;-58
2022/10/21 12:44:53;;;;;;;5.13;1.40;;;17.30;99.90;;;;;;7766465;74;26236;-57
2022/10/21 12:55:07;;;;;;;5.80;1.40;;;17.30;99.90;;;;;;7885967;74;26335;-60
2022/10/21 13:05:10;;;;;;;3.80;1.10;;;17.30;99.90;;;;;;7944360;73;26403;-61
2022/10/21 13:15:24;;;;;;;7.53;1.30;;;17.40;99.90;;;;;;7718064;75;26576;-56
2022/10/21 13:25:30;;;;;;;6.73;1.30;;;17.40;99.90;;;;;;7898342;74;26279;-58
2022/10/21 13:35:35;;;;;;;9.53;1.50;;;17.50;99.90;;;;;;7921141;73;26833;-57
2022/10/21 13:45:47;;;;;;;6.30;2.00;;;17.50;99.90;;;;;;8006298;72;26313;-57
2022/10/21 13:55:55;;;;;;;10.47;1.60;;;17.50;99.90;;;;;;8007696;73;26293;-58
2022/10/21 14:06:00;;;;;;;6.43;1.50;;;17.50;99.90;;;;;;8036809;72;26192;-57
2022/10/21 14:16:04;;;;;;;5.77;1.60;;;17.50;99.90;;;;;;8041822;72;26299;-56
2022/10/21 14:26:08;;;;;;;8.33;1.57;;;17.60;99.90;;;;;;8018214;72;26733;-57
2022/10/21 14:36:14;;;;;;;2.90;1.07;;;17.50;99.90;;;;;;8028027;72;26252;-59
2022/10/21 14:46:17;;;;;;;8.33;1.53;;;17.60;99.90;;;;;;8021152;72;26210;-58
2022/10/21 14:56:32;;;;;;;3.13;1.33;;;17.50;99.90;;;;;;8060906;72;26234;-57
2022/10/21 15:06:35;;;;;;;5.33;2.17;;;17.50;99.90;;;;;;7923215;74;26264;-57
2022/10/21 15:16:38;;;;;;;3.27;1.60;;;17.50;99.90;;;;;;7916148;73;26245;-57
2022/10/21 15:26:41;;;;;;;2.27;1.40;;;17.50;99.90;;;;;;7927363;73;26293;-59
2022/10/21 15:36:44;;;;;;;1.90;1.40;;;17.50;99.90;;;;;;8053204;72;26227;-60
2022/10/21 15:46:49;;;;;;;7.67;2.00;;;17.50;99.90;;;;;;8081625;72;26215;-58
2022/10/21 15:56:53;;;;;;;6.33;1.60;;;17.50;99.90;;;;;;8075094;72;26287;-59
2022/10/21 16:06:56;;;;;;;4.57;1.57;;;17.50;99.90;;;;;;8066767;72;26217;-59
2022/10/21 16:16:59;;;;;;;8.27;2.00;;;17.50;99.90;;;;;;8043491;72;26884;-58
2022/10/21 16:27:01;;;;;;;9.67;1.67;;;17.50;99.90;;;;;;7987509;73;26812;-56
2022/10/21 16:37:07;;;;;;;27.67;15.07;;;17.50;99.90;;;;;;8021301;72;26247;-58
2022/10/21 16:47:15;;;;;;;33.40;17.83;;;17.50;99.90;;;;;;8038561;72;26199;-58
2022/10/21 16:57:18;;;;;;;32.90;22.43;;;17.50;99.90;;;;;;8065641;72;26192;-58
2022/10/21 17:07:20;;;;;;;33.07;20.37;;;17.50;99.90;;;;;;8042775;72;26236;-58
2022/10/21 17:17:23;;;;;;;27.13;18.23;;;17.50;99.90;;;;;;8078167;72;26745;-60
2022/10/21 17:27:25;;;;;;;27.90;17.87;;;17.50;99.90;;;;;;8071667;72;26253;-59
2022/10/21 17:37:28;;;;;;;30.03;15.87;;;17.50;99.90;;;;;;8051204;72;26265;-59
2022/10/21 17:47:30;;;;;;;22.63;13.33;;;17.50;99.90;;;;;;8069309;72;26225;-59
2022/10/21 17:57:33;;;;;;;22.07;13.43;;;17.50;99.90;;;;;;8080557;72;26722;-60
2022/10/21 18:07:36;;;;;;;18.93;11.93;;;17.50;99.90;;;;;;8086310;72;26244;-59
2022/10/21 18:17:38;;;;;;;19.80;11.13;;;17.50;99.90;;;;;;8087773;72;26265;-59
2022/10/21 18:27:41;;;;;;;18.23;9.93;;;17.50;99.90;;;;;;8095944;72;26225;-57
2022/10/21 18:37:43;;;;;;;23.43;11.07;;;17.50;99.90;;;;;;8058364;72;26361;-58
2022/10/21 18:47:46;;;;;;;15.60;9.97;;;17.50;99.90;;;;;;8063708;72;26229;-57
2022/10/21 18:57:48;;;;;;;14.33;10.20;;;17.50;99.90;;;;;;8067176;72;26284;-58
2022/10/21 19:07:52;;;;;;;18.37;9.33;;;17.50;99.90;;;;;;8074657;72;26377;-61
2022/10/21 19:17:55;;;;;;;13.67;7.30;;;17.50;99.90;;;;;;8067339;72;26602;-60
2022/10/21 19:27:57;;;;;;;11.57;6.63;;;17.50;99.90;;;;;;8074692;72;26286;-58
2022/10/21 19:38:00;;;;;;;10.33;5.37;;;17.50;99.90;;;;;;8028940;72;26368;-57
2022/10/21 19:48:03;;;;;;;12.30;6.97;;;17.50;99.90;;;;;;8018670;72;26277;-54
2022/10/21 19:58:05;;;;;;;10.43;4.60;;;17.50;99.90;;;;;;8010890;72;26297;-57
2022/10/21 20:08:08;;;;;;;9.90;5.83;;;17.50;99.90;;;;;;8027518;73;26370;-57
2022/10/21 20:18:10;;;;;;;9.00;4.30;;;17.50;99.90;;;;;;8022025;72;27450;-55
2022/10/21 20:28:13;;;;;;;7.67;5.07;;;17.50;99.90;;;;;;8022731;72;26379;-58
2022/10/21 20:38:15;;;;;;;7.20;4.60;;;17.60;99.90;;;;;;8025562;72;26277;-59
2022/10/21 20:48:18;;;;;;;26.07;7.73;;;17.60;99.90;;;;;;8036264;72;26751;-58
2022/10/21 20:58:21;;;;;;;17.83;6.53;;;17.60;99.90;;;;;;8024532;73;26338;-58
2022/10/21 21:08:23;;;;;;;16.33;5.53;;;17.60;99.90;;;;;;8027119;73;26261;-58
2022/10/21 21:18:26;;;;;;;15.93;6.30;;;17.50;99.90;;;;;;8013943;72;26863;-59
2022/10/21 21:28:28;;;;;;;14.83;5.07;;;17.50;99.90;;;;;;8018664;73;26279;-59
2022/10/21 21:38:32;;;;;;;8.80;4.10;;;17.60;99.90;;;;;;8019706;73;26273;-58
2022/10/21 21:48:35;;;;;;;16.50;5.07;;;17.30;99.90;;;;;;8017391;73;26735;-58
2022/10/21 21:58:38;;;;;;;9.83;4.77;;;17.30;99.90;;;;;;7998369;73;26276;-57
2022/10/21 22:08:42;;;;;;;13.70;5.20;;;17.20;99.90;;;;;;8016093;72;26777;-57
2022/10/21 22:18:44;;;;;;;11.90;4.43;;;17.20;99.90;;;;;;8029837;72;26327;-58
2022/10/21 22:28:47;;;;;;;10.53;4.23;;;17.30;99.90;;;;;;8043261;72;26797;-57
2022/10/21 22:38:49;;;;;;;12.23;4.50;;;17.20;99.90;;;;;;8029119;72;26346;-58
2022/10/21 22:48:52;;;;;;;9.97;4.27;;;17.00;99.90;;;;;;8043229;72;26747;-58
2022/10/21 22:58:56;;;;;;;12.33;3.77;;;17.10;99.90;;;;;;8057200;72;26287;-59
2022/10/21 23:08:59;;;;;;;15.23;3.73;;;17.00;99.90;;;;;;8042075;72;26251;-57
2022/10/21 23:19:01;;;;;;;11.13;3.90;;;17.10;99.90;;;;;;8058567;72;26232;-56
2022/10/21 23:29:04;;;;;;;11.80;4.60;;;17.00;99.90;;;;;;8047654;72;26769;-55
2022/10/21 23:39:07;;;;;;;13.93;4.53;;;17.00;99.90;;;;;;8048152;72;26347;-58
2022/10/21 23:49:09;;;;;;;11.73;4.13;;;17.00;99.90;;;;;;8038705;72;26269;-58
2022/10/21 23:59:12;;;;;;;6.37;3.73;;;16.90;99.90;;;;;;8031955;72;26229;-55
